• Join FlightAware (Why Join?)
  • Login
  • US Flag 
10:30AM EST


 

Airport Tracker/Info


-or-


 

Live Flight TrackerFlight Track Log ✈ 9Y-JMA ✈ 23-Apr-2013 ✈ TTPP / POS - KJFK

Flight Track Log - Related Links

Times and Time Zones

All times are in EDT time to prevent confusion due to time zone crossing. See the 9Y-JMA flight status page for this flight to view local times or setup timezone preferences in your user account.

Time Position Orientation Groundspeed Altitude Reporting Facility
EDT Latitude Longitude Course Direction KTS MPH feet Rate Location/Type
06:44PM 10.6852 -61.3669 342° North  Level Estimated
06:45PM 10.8436 -61.4193 342° North  Level Estimated
06:46PM 11.0021 -61.4717 342° North  Level Estimated
06:47PM 11.1605 -61.5241 342° North  Level Estimated
06:48PM 11.3189 -61.5767 342° North  Level Estimated
06:49PM 11.4773 -61.6292 342° North  Level Estimated
06:50PM 11.6357 -61.6819 342° North  Level Estimated
06:51PM 11.7941 -61.7346 342° North  Level Estimated
06:52PM 11.9525 -61.7873 342° North  Level Estimated
06:53PM 12.1109 -61.8402 342° North  Level Estimated
06:54PM 12.2693 -61.8931 342° North  Level Estimated
06:55PM 12.4276 -61.9460 342° North  Level Estimated
06:56PM 12.5860 -61.9990 342° North  Level Estimated
06:57PM 12.7443 -62.0521 342° North  Level Estimated
06:58PM 12.9027 -62.1053 342° North  Level Estimated
06:59PM 13.0610 -62.1585 342° North  Level Estimated
07:00PM 13.2193 -62.2118 342° North  Level Estimated
07:01PM 13.3776 -62.2651 342° North  Level Estimated
07:02PM 13.5358 -62.3185 342° North  Level Estimated
07:03PM 13.6941 -62.3720 342° North  Level Estimated
07:04PM 13.8524 -62.4256 342° North  Level Estimated
07:05PM 14.0106 -62.4792 342° North  Level Estimated
07:06PM 14.1689 -62.5329 342° North  Level Estimated
07:07PM 14.3271 -62.5867 342° North  Level Estimated
07:08PM 14.4853 -62.6406 342° North  Level Estimated
07:09PM 14.6435 -62.6945 342° North  Level Estimated
07:10PM 14.8017 -62.7486 342° North  Level Estimated
07:11PM 14.9599 -62.8027 342° North  Level Estimated
07:11PM 15.1167 -64.2000 342° North 420 483 32,000  Level San Juan Center
07:12PM 15.1180 -62.8568 342° North  Level Estimated
07:12PM 15.2167 -64.2667 327° Northwest 430 495 32,000  Level San Juan Center
07:13PM 15.2762 -62.9111 342° North  Level Estimated
07:13PM 15.3167 -64.3333 327° Northwest 420 483 32,000  Level San Juan Center
07:14PM 15.4343 -62.9654 342° North  Level Estimated
07:14PM 15.4167 -64.4000 327° Northwest 430 495 32,000  Level San Juan Center
07:15PM 15.5924 -63.0199 342° North  Level Estimated
07:15PM 15.5000 -64.4833 316° Northwest 430 495 32,000  Level San Juan Center
07:16PM 15.7505 -63.0744 342° North  Level Estimated
07:16PM 15.6167 -64.5333 338° Northwest 420 483 32,000  Level San Juan Center
07:17PM 15.7167 -64.5833 334° Northwest 410 472 32,000 360 Level San Juan Center
07:18PM 15.8000 -64.6667 316° Northwest 420 483 32,800 660 Climbing San Juan Center
07:19PM 15.9167 -64.7167 338° Northwest 430 495 33,400 600 Climbing San Juan Center
07:20PM 16.0333 -64.7833 331° Northwest 440 506 34,000 300 Climbing San Juan Center
07:21PM 16.1500 -64.8167 345° North 430 495 34,000  Level San Juan Center
07:22PM 16.2667 -64.8667 338° Northwest 440 506 34,000  Level San Juan Center
07:23PM 16.3667 -64.9167 334° Northwest 430 495 34,000  Level San Juan Center
07:24PM 16.4833 -64.9667 338° Northwest 430 495 34,000  Level San Juan Center
07:25PM 16.6000 -65.0167 338° Northwest 430 495 34,000  Level San Juan Center
07:26PM 16.7000 -65.0667 334° Northwest 430 495 34,000  Level San Juan Center
07:27PM 16.8167 -65.1000 345° North 430 495 34,000  Level San Juan Center
07:28PM 16.9333 -65.1500 338° Northwest 430 495 34,000  Level San Juan Center
07:29PM 17.0500 -65.2000 338° Northwest 430 495 34,000  Level San Juan Center
07:30PM 17.1667 -65.2500 338° Northwest 430 495 34,000  Level San Juan Center
07:31PM 17.2667 -65.3000 334° Northwest 430 495 34,000  Level San Juan Center
07:32PM 17.3833 -65.3333 345° North 430 495 34,000  Level San Juan Center
07:33PM 17.5000 -65.3833 338° Northwest 430 495 34,000  Level San Juan Center
07:34PM 17.6000 -65.4333 335° Northwest 440 506 34,000  Level San Juan Center
07:35PM 17.7167 -65.4833 338° Northwest 440 506 34,000  Level San Juan Center
07:36PM 17.8333 -65.5333 338° Northwest 430 495 34,000  Level San Juan Center
07:37PM 17.9500 -65.5833 338° Northwest 430 495 34,000  Level San Juan Center
07:38PM 18.0500 -65.6333 335° Northwest 430 495 34,000  Level San Juan Center
07:39PM 18.1667 -65.6667 345° North 420 483 34,000  Level San Juan Center
07:40PM 18.2833 -65.7167 338° Northwest 430 495 34,000  Level San Juan Center
07:41PM 18.3833 -65.7667 335° Northwest 420 483 34,000  Level San Juan Center
07:42PM 18.5000 -65.8167 338° Northwest 430 495 34,000  Level San Juan Center
07:43PM 18.6167 -65.8667 338° Northwest 420 483 34,000  Level San Juan Center
07:44PM 18.7167 -65.9167 335° Northwest 420 483 34,000  Level San Juan Center
07:45PM 18.8333 -65.9667 338° Northwest 420 483 34,000  Level San Juan Center
07:46PM 18.9333 -66.0000 343° North 420 483 34,000  Level San Juan Center
07:47PM 19.0500 -66.0500 338° Northwest 420 483 34,000  Level San Juan Center
07:48PM 19.1667 -66.1000 338° Northwest 430 495 34,000  Level San Juan Center
07:49PM 19.2500 -66.1500 330° Northwest 400 460 34,000  Level San Juan Center
07:50PM 19.3667 -66.2000 338° Northwest 420 483 34,000  Level San Juan Center
07:51PM 19.4833 -66.2333 345° North 420 483 34,000  Level San Juan Center
07:52PM 19.5833 -66.2833 335° Northwest 420 483 34,000  Level San Juan Center
07:53PM 19.7000 -66.3333 338° Northwest 420 483 34,000  Level San Juan Center
07:54PM 19.8000 -66.3833 335° Northwest 420 483 34,000  Level San Juan Center
07:55PM 19.9167 -66.4333 338° Northwest 410 472 34,000  Level San Juan Center
07:56PM 20.0167 -66.4833 335° Northwest 420 483 34,000  Level San Juan Center
07:57PM 20.1333 -66.5333 338° Northwest 420 483 34,000  Level San Juan Center
07:58PM 20.2333 -66.5667 343° North 420 483 34,000  Level San Juan Center
07:59PM 20.3500 -66.6167 338° Northwest 420 483 34,000  Level San Juan Center
08:00PM 20.4500 -66.6667 335° Northwest 430 495 34,000  Level San Juan Center
08:01PM 20.5667 -66.7167 338° Northwest 420 483 34,000 240 Level San Juan Center
08:02PM 20.6667 -66.7667 335° Northwest 420 483 34,600 540 Climbing San Juan Center
08:03PM 20.7833 -66.8167 338° Northwest 420 483 35,200 660 Climbing San Juan Center
08:04PM 20.9000 -66.8667 338° Northwest 430 495 36,000 360 Climbing San Juan Center
08:05PM 21.0000 -66.9167 335° Northwest 430 495 36,000  Level San Juan Center
08:06PM 21.1167 -66.9667 338° Northwest 430 495 36,000  Level San Juan Center
08:07PM 21.2333 -67.0167 338° Northwest 430 495 36,000  Level San Juan Center
08:08PM 21.3333 -67.0667 335° Northwest 430 495 36,000  Level San Juan Center
08:09PM 21.4500 -67.1167 338° Northwest 440 506 36,000  Level San Juan Center
08:10PM 21.5667 -67.1667 338° Northwest 430 495 36,000  Level San Juan Center
08:11PM 21.7000 -67.2167 341° North 440 506 36,000  Level San Juan Center
08:11PM 21.6167 -67.2000 349° North 443 510 36,000  Level New York Oceanic (ODAPS)
08:12PM 21.8167 -67.2333 349° North 450 518 36,000  Level San Juan Center
08:14PM 21.9889 -67.2692 349° North  Level FlightAware Approximate
08:21PM 22.7072 -67.4078 350° North  Level FlightAware Approximate
08:22PM 22.8099 -67.4269 350° North  Level FlightAware Approximate
08:23PM 22.9126 -67.4461 350° North  Level FlightAware Approximate
08:24PM 23.0146 -67.4693 348° North  Level FlightAware Approximate
08:24PM 22.2333 -67.3167 349° North 473 544 36,000  Level New York Oceanic (ODAPS)
08:25PM 23.1164 -67.4935 348° North  Level FlightAware Approximate
08:26PM 23.2183 -67.5178 348° North  Level FlightAware Approximate
08:27PM 23.3203 -67.5411 349° North  Level FlightAware Approximate
08:28PM 23.4226 -67.5626 349° North  Level FlightAware Approximate
08:29PM 23.5249 -67.5842 349° North  Level FlightAware Approximate
08:30PM 23.6273 -67.6055 350° North  Level FlightAware Approximate
08:31PM 24.1396 -67.7225 349° North 473 544 36,000  Level FlightAware Transoceanic
08:32PM 24.2667 -67.7500 349° North 473 544 36,000  Level FlightAware Transoceanic
08:33PM 24.3969 -67.7775 349° North 473 544 36,000  Level FlightAware Transoceanic
08:34PM 24.5271 -67.8050 349° North 473 544 36,000  Level FlightAware Transoceanic
08:35PM 24.6573 -67.8326 349° North 473 544 36,000  Level FlightAware Transoceanic
08:36PM 24.7875 -67.8602 349° North 473 544 36,000  Level FlightAware Transoceanic
08:37PM 24.9177 -67.8879 349° North 473 544 36,000  Level FlightAware Transoceanic
08:38PM 25.0478 -67.9156 349° North 473 544 36,000  Level FlightAware Transoceanic
08:39PM 25.1780 -67.9435 349° North 473 544 36,000  Level FlightAware Transoceanic
08:40PM 25.3082 -67.9713 349° North 473 544 36,000  Level FlightAware Transoceanic
08:41PM 25.4384 -67.9993 349° North 473 544 36,000  Level FlightAware Transoceanic
08:42PM 25.5685 -68.0273 349° North 473 544 36,000  Level FlightAware Transoceanic
08:43PM 25.6987 -68.0553 349° North 473 544 36,000  Level FlightAware Transoceanic
08:43PM 25.4667 -68.0000 349° North 450 518 36,000  Level New York Oceanic (ODAPS)
08:44PM 25.8288 -68.0834 349° North 473 544 36,000  Level FlightAware Transoceanic
08:45PM 25.9590 -68.1116 349° North 473 544 36,000  Level FlightAware Transoceanic
08:46PM 26.0891 -68.1398 349° North 473 544 36,000  Level FlightAware Transoceanic
08:47PM 26.2192 -68.1681 349° North 473 544 36,000  Level FlightAware Transoceanic
08:48PM 26.3494 -68.1965 349° North 473 544 36,000  Level FlightAware Transoceanic
08:49PM 26.4783 -68.2203 349° North 450 518 36,000  Level FlightAware Transoceanic
08:50PM 26.6048 -68.2481 349° North 450 518 36,000  Level FlightAware Transoceanic
08:51PM 26.7312 -68.2759 349° North 450 518 36,000  Level FlightAware Transoceanic
08:52PM 26.8576 -68.3039 349° North 450 518 36,000  Level FlightAware Transoceanic
08:53PM 26.9840 -68.3319 349° North 450 518 36,000  Level FlightAware Transoceanic
08:54PM 27.1104 -68.3599 349° North 450 518 36,000  Level FlightAware Transoceanic
08:55PM 27.2369 -68.3880 349° North 450 518 36,000  Level FlightAware Transoceanic
08:56PM 27.3633 -68.4162 349° North 450 518 36,000  Level FlightAware Transoceanic
08:57PM 27.4896 -68.4445 349° North 450 518 36,000  Level FlightAware Transoceanic
08:58PM 27.6160 -68.4728 349° North 450 518 36,000  Level FlightAware Transoceanic
08:59PM 27.7424 -68.5012 349° North 450 518 36,000  Level FlightAware Transoceanic
09:00PM 27.8688 -68.5296 349° North 450 518 36,000  Level FlightAware Transoceanic
09:01PM 27.9952 -68.5581 349° North 450 518 36,000  Level FlightAware Transoceanic
09:02PM 28.1215 -68.5867 349° North 450 518 36,000  Level FlightAware Transoceanic
09:03PM 28.2479 -68.6153 349° North 450 518 36,000  Level FlightAware Transoceanic
09:04PM 28.3743 -68.6440 349° North 450 518 36,000  Level FlightAware Transoceanic
09:05PM 28.5006 -68.6728 349° North 450 518 36,000  Level FlightAware Transoceanic
09:06PM 28.6269 -68.7017 349° North 450 518 36,000  Level FlightAware Transoceanic
09:07PM 28.7533 -68.7306 349° North 450 518 36,000  Level FlightAware Transoceanic
09:08PM 28.8796 -68.7596 349° North 450 518 36,000  Level FlightAware Transoceanic
09:09PM 29.0059 -68.7886 349° North 450 518 36,000  Level FlightAware Transoceanic
09:10PM 29.1322 -68.8177 349° North 450 518 36,000  Level FlightAware Transoceanic
09:10PM 28.8167 -68.7333 348° North 475 547 36,000  Level New York Oceanic (ODAPS)
09:11PM 29.2586 -68.8469 349° North 450 518 36,000  Level FlightAware Transoceanic
09:12PM 29.3849 -68.8762 349° North 450 518 36,000  Level FlightAware Transoceanic
09:13PM 29.5112 -68.9056 349° North 450 518 36,000  Level FlightAware Transoceanic
09:14PM 29.6374 -68.9350 349° North 450 518 36,000  Level FlightAware Transoceanic
09:15PM 29.7637 -68.9645 349° North 450 518 36,000  Level FlightAware Transoceanic
09:16PM 29.7284 -68.9495 348° North 475 547 36,000  Level FlightAware Transoceanic
09:17PM 29.8586 -68.9807 348° North 475 547 36,000  Level FlightAware Transoceanic
09:18PM 29.9888 -69.0120 348° North 475 547 36,000  Level FlightAware Transoceanic
09:19PM 30.1190 -69.0434 348° North 475 547 36,000  Level FlightAware Transoceanic
09:20PM 30.2492 -69.0748 348° North 475 547 36,000  Level FlightAware Transoceanic
09:21PM 30.3794 -69.1064 348° North 475 547 36,000  Level FlightAware Transoceanic
09:22PM 30.5095 -69.1380 348° North 475 547 36,000  Level FlightAware Transoceanic
09:23PM 30.6397 -69.1697 348° North 475 547 36,000  Level FlightAware Transoceanic
09:24PM 30.7698 -69.2015 348° North 475 547 36,000  Level FlightAware Transoceanic
09:25PM 30.9000 -69.2333 349° North 475 547 36,000  Level FlightAware Transoceanic
09:26PM 31.0366 -69.2657 348° North 475 547 36,000  Level FlightAware Transoceanic
09:27PM 31.1731 -69.2982 348° North 475 547 36,000  Level FlightAware Transoceanic
09:27PM 30.9000 -69.2333 349° North 472 543 36,000  Level New York Oceanic (ODAPS)
09:28PM 31.3097 -69.3308 348° North 475 547 36,000  Level FlightAware Transoceanic
09:29PM 31.4462 -69.3634 348° North 475 547 36,000  Level FlightAware Transoceanic
09:30PM 31.5827 -69.3962 348° North 475 547 36,000  Level FlightAware Transoceanic
09:31PM 31.7192 -69.4291 348° North 475 547 36,000  Level FlightAware Transoceanic
09:32PM 31.8558 -69.4620 348° North 475 547 36,000  Level FlightAware Transoceanic
09:33PM 31.9923 -69.4951 348° North 475 547 36,000  Level FlightAware Transoceanic
09:34PM 32.0592 -69.5113 348° North 472 543 36,000  Level FlightAware Transoceanic
09:35PM 32.1880 -69.5426 348° North 472 543 36,000  Level FlightAware Transoceanic
09:36PM 32.3167 -69.5741 348° North 472 543 36,000  Level FlightAware Transoceanic
09:37PM 32.4455 -69.6056 348° North 472 543 36,000  Level FlightAware Transoceanic
09:38PM 32.5742 -69.6372 348° North 472 543 36,000  Level FlightAware Transoceanic
09:39PM 32.7030 -69.6688 348° North 472 543 36,000  Level FlightAware Transoceanic
09:40PM 32.8317 -69.7006 348° North 472 543 36,000  Level FlightAware Transoceanic
09:41PM 32.9604 -69.7325 348° North 472 543 36,000  Level FlightAware Transoceanic
09:42PM 33.0891 -69.7644 348° North 472 543 36,000  Level FlightAware Transoceanic
09:43PM 33.2178 -69.7965 348° North 472 543 36,000  Level FlightAware Transoceanic
09:44PM 33.3465 -69.8286 348° North 472 543 36,000  Level FlightAware Transoceanic
09:45PM 33.4752 -69.8608 348° North 472 543 36,000  Level FlightAware Transoceanic
09:46PM 33.6039 -69.8932 348° North 472 543 36,000  Level FlightAware Transoceanic
09:47PM 33.7325 -69.9256 348° North 472 543 36,000  Level FlightAware Transoceanic
09:48PM 33.8612 -69.9581 348° North 472 543 36,000  Level FlightAware Transoceanic
09:49PM 33.9898 -69.9908 348° North 472 543 36,000  Level FlightAware Transoceanic
09:50PM 34.1185 -70.0235 348° North 472 543 36,000  Level FlightAware Transoceanic
09:51PM 34.2471 -70.0563 348° North 472 543 36,000  Level FlightAware Transoceanic
09:52PM 34.3758 -70.0892 348° North 472 543 36,000  Level FlightAware Transoceanic
09:53PM 34.5044 -70.1223 348° North 472 543 36,000  Level FlightAware Transoceanic
09:54PM 34.6330 -70.1554 348° North 472 543 36,000  Level FlightAware Transoceanic
09:55PM 34.7616 -70.1886 348° North 472 543 36,000  Level FlightAware Transoceanic
09:56PM 34.8902 -70.2220 348° North 472 543 36,000  Level FlightAware Transoceanic
09:57PM 35.0187 -70.2554 348° North 472 543 36,000  Level FlightAware Transoceanic
09:58PM 35.1473 -70.2890 348° North 472 543 36,000  Level FlightAware Transoceanic
09:59PM 35.2759 -70.3226 348° North 472 543 36,000  Level FlightAware Transoceanic
10:00PM 35.4044 -70.3564 348° North 472 543 36,000  Level FlightAware Transoceanic
10:01PM 35.5330 -70.3902 348° North 472 543 36,000  Level FlightAware Transoceanic
10:02PM 35.6615 -70.4242 348° North 472 543 36,000  Level FlightAware Transoceanic
10:03PM 35.7900 -70.4583 348° North 472 543 36,000  Level FlightAware Transoceanic
10:04PM 35.9185 -70.4925 348° North 472 543 36,000  Level FlightAware Transoceanic
10:05PM 36.0470 -70.5268 348° North 472 543 36,000  Level FlightAware Transoceanic
10:06PM 36.1755 -70.5612 348° North 472 543 36,000  Level FlightAware Transoceanic
10:07PM 36.3040 -70.5957 348° North 472 543 36,000  Level FlightAware Transoceanic
10:08PM 36.4325 -70.6304 348° North 472 543 36,000  Level FlightAware Transoceanic
10:09PM 36.5610 -70.6652 348° North 472 543 36,000  Level FlightAware Transoceanic
10:10PM 36.6894 -70.7000 348° North 472 543 36,000  Level FlightAware Transoceanic
10:11PM 36.8178 -70.7350 348° North 472 543 36,000  Level FlightAware Transoceanic
10:12PM 36.9463 -70.7701 348° North 472 543 36,000 -60 Level FlightAware Transoceanic
10:12PM 37.3494 -70.8792 330° Northwest 462 532 35,900  Descending New York Center
10:13PM 37.0747 -70.8054 348° North 472 543 36,000  Climbing FlightAware Transoceanic
10:13PM 37.4872 -70.9161 348° North 488 562 35,900  Descending New York Center
10:14PM 37.2031 -70.8407 348° North 472 543 36,000 60 Climbing FlightAware Transoceanic
10:14PM 37.6228 -70.9636 344° North 494 568 36,000  Level New York Center
10:15PM 37.3315 -70.8762 348° North 472 543 36,000 -120 Level FlightAware Transoceanic
10:15PM 37.7392 -71.0506 329° Northwest 487 560 35,900  Descending New York Center
10:16PM 37.4599 -70.9118 348° North 472 543 36,000 60 Climbing FlightAware Transoceanic
10:16PM 37.8369 -71.1589 319° Northwest 476 548 36,000  Level New York Center
10:17PM 37.5883 -70.9475 348° North 472 543 36,000  Level FlightAware Transoceanic
10:17PM 37.9325 -71.2700 317° Northwest 470 541 36,000  Level New York Center
10:18PM 37.7167 -70.9833 330° Northwest 472 543 36,000  Level FlightAware Transoceanic
10:18PM 38.0256 -71.3894 315° West 470 541 36,000 -60 Level New York Center
10:19PM 38.1208 -71.5036 317° Northwest 470 541 35,900 -60 Descending New York Center
10:20PM 38.2181 -71.6183 317° Northwest 470 541 35,900  Level New York Center
10:21PM 38.3111 -71.7253 318° Northwest 470 541 35,900  Level New York Center
10:22PM 38.4039 -71.8433 315° West 465 535 36,000  Climbing New York Center
10:23PM 38.4967 -71.9536 317° Northwest 465 535 36,000 -60 Level New York Center
10:24PM 38.5872 -72.0667 316° Northwest 465 535 35,900  Descending New York Center
10:25PM 38.6778 -72.1747 317° Northwest 455 524 36,000  Climbing New York Center
10:26PM 38.7700 -72.2936 315° West 450 518 35,900 -840 Descending New York Center
10:27PM 38.8603 -72.3997 318° Northwest 450 518 34,400 -2,280 Descending New York Center
10:28PM 38.9503 -72.5139 315° West 445 512 31,400 -3,000 Descending New York Center
10:29PM 39.0425 -72.6258 317° Northwest 451 519 28,400 -2,880 Descending New York Center
10:30PM 39.1303 -72.7378 315° West 451 519 25,800 -2,520 Descending New York Center
10:31PM 39.2161 -72.8419 317° Northwest 446 513 23,400 -2,340 Descending New York Center
10:32PM 39.2975 -72.9411 317° Northwest 428 493 21,100 -2,340 Descending New York Center
10:33PM 39.3789 -73.0511 314° West 414 476 18,900 -2,100 Descending New York Center
10:34PM 39.4481 -73.1339 317° Northwest 399 459 17,000 -2,280 Descending New York Center
10:35PM 39.5314 -73.2392 316° Northwest 388 447 14,400 -1,920 Descending New York Center
10:36PM 39.6003 -73.3278 315° West 372 428 13,300 -900 Descending New York Center
10:37PM 39.6714 -73.4219 314° West 367 422 12,600 -720 Descending New York Center
10:38PM 39.7319 -73.4997 315° West 362 417 11,900 -720 Descending New York Center
10:39PM 39.8008 -73.5864 316° Northwest 356 410 11,200 -720 Descending New York Center
10:40PM 39.8656 -73.6675 316° Northwest 344 396 10,500 -660 Descending New York Center
10:41PM 39.9200 -73.7372 316° Northwest 303 349 10,000 -600 Descending New York Center
10:42PM 39.9786 -73.8103 316° Northwest 270 311 9,400 -600 Descending New York Center
10:43PM 40.0475 -73.8106 360° North 240 276 8,900 -1,020 Descending New York Center
10:44PM 40.1106 -73.7836 18° North 237 273 7,500 -1,620 Descending New York Center
10:45PM 40.1742 -73.8217 335° Northwest 239 275 5,800 -1,620 Descending New York Center
10:46PM 40.2314 -73.8731 326° Northwest 244 281 4,400 -1,200 Descending New York Center
10:47PM 40.2967 -73.9222 330° Northwest 250 288 3,400 -840 Descending New York Center
10:48PM 40.3528 -73.9247 358° North 215 247 2,700 -720 Descending New York Center
10:49PM 40.4067 -73.9328 354° North 204 235 2,000 -360 Descending New York Center
10:50PM 40.4500 -73.9167 16° North 164 189 2,000  Level New York TRACON
10:51PM 40.4833 -73.8833 37° Northeast 165 190 2,000  Level New York TRACON
10:52PM 40.5333 -73.8500 27° Northeast 164 189 2,100 -240 Climbing New York TRACON
10:53PM 40.5667 -73.8167 37° Northeast 139 160 1,500 -660 Descending New York TRACON
10:54PM 40.6000 -73.8000 21° North 133 153 800 -660 Descending New York TRACON
10:55PM 40.6167 -73.7667 57° Northeast 136 157 200 -600 Descending New York TRACON
10:57PM 40.6333 -73.7667 North  Level FlightAware Approximate
11:04PM 40.6398 -73.7789 North  Level Estimated